sensor_id;sensor_type;location;lat;lon;timestamp;P1;durP1;ratioP1;P2;durP2;ratioP2
64667;SDS011;51077;42.716;23.344;2022-08-21T00:00:23;11.67;;;7.70;;
64667;SDS011;51077;42.716;23.344;2022-08-21T00:02:52;12.52;;;8.00;;
64667;SDS011;51077;42.716;23.344;2022-08-21T00:05:26;10.57;;;7.95;;
64667;SDS011;51077;42.716;23.344;2022-08-21T00:07:52;15.93;;;8.38;;
64667;SDS011;51077;42.716;23.344;2022-08-21T00:10:18;16.90;;;8.60;;
64667;SDS011;51077;42.716;23.344;2022-08-21T00:12:44;15.50;;;8.60;;
64667;SDS011;51077;42.716;23.344;2022-08-21T00:15:11;13.15;;;8.43;;
64667;SDS011;51077;42.716;23.344;2022-08-21T00:17:41;13.60;;;8.75;;
64667;SDS011;51077;42.716;23.344;2022-08-21T00:20:07;14.47;;;8.83;;
64667;SDS011;51077;42.716;23.344;2022-08-21T00:22:34;14.63;;;8.68;;
64667;SDS011;51077;42.716;23.344;2022-08-21T00:25:02;15.75;;;8.52;;
64667;SDS011;51077;42.716;23.344;2022-08-21T00:27:28;15.70;;;9.75;;
64667;SDS011;51077;42.716;23.344;2022-08-21T00:29:54;14.63;;;9.13;;
64667;SDS011;51077;42.716;23.344;2022-08-21T00:32:21;11.38;;;8.85;;
64667;SDS011;51077;42.716;23.344;2022-08-21T00:34:50;16.10;;;9.45;;
64667;SDS011;51077;42.716;23.344;2022-08-21T00:37:16;16.33;;;9.85;;
64667;SDS011;51077;42.716;23.344;2022-08-21T00:39:42;14.23;;;9.50;;
64667;SDS011;51077;42.716;23.344;2022-08-21T00:42:08;15.07;;;10.30;;
64667;SDS011;51077;42.716;23.344;2022-08-21T00:44:35;15.30;;;10.32;;
64667;SDS011;51077;42.716;23.344;2022-08-21T00:47:01;16.00;;;10.73;;
64667;SDS011;51077;42.716;23.344;2022-08-21T00:49:26;16.97;;;10.50;;
64667;SDS011;51077;42.716;23.344;2022-08-21T00:51:53;20.67;;;10.43;;
64667;SDS011;51077;42.716;23.344;2022-08-21T00:54:24;19.30;;;11.13;;
64667;SDS011;51077;42.716;23.344;2022-08-21T00:56:59;16.30;;;10.93;;
64667;SDS011;51077;42.716;23.344;2022-08-21T00:59:27;19.13;;;11.48;;
64667;SDS011;51077;42.716;23.344;2022-08-21T01:01:57;16.15;;;10.50;;
64667;SDS011;51077;42.716;23.344;2022-08-21T01:04:22;18.13;;;11.20;;
64667;SDS011;51077;42.716;23.344;2022-08-21T01:06:48;16.83;;;10.30;;
64667;SDS011;51077;42.716;23.344;2022-08-21T01:09:14;19.60;;;11.97;;
64667;SDS011;51077;42.716;23.344;2022-08-21T01:11:39;21.27;;;11.60;;
64667;SDS011;51077;42.716;23.344;2022-08-21T01:14:07;21.05;;;11.35;;
64667;SDS011;51077;42.716;23.344;2022-08-21T01:16:37;18.38;;;12.55;;
64667;SDS011;51077;42.716;23.344;2022-08-21T01:19:04;19.25;;;13.23;;
64667;SDS011;51077;42.716;23.344;2022-08-21T01:21:30;17.98;;;11.82;;
64667;SDS011;51077;42.716;23.344;2022-08-21T01:23:56;17.60;;;11.50;;
64667;SDS011;51077;42.716;23.344;2022-08-21T01:26:23;20.48;;;13.07;;
64667;SDS011;51077;42.716;23.344;2022-08-21T01:28:59;17.02;;;12.52;;
64667;SDS011;51077;42.716;23.344;2022-08-21T01:31:26;16.90;;;10.68;;
64667;SDS011;51077;42.716;23.344;2022-08-21T01:33:53;17.65;;;11.70;;
64667;SDS011;51077;42.716;23.344;2022-08-21T01:36:20;18.08;;;11.90;;
64667;SDS011;51077;42.716;23.344;2022-08-21T01:38:46;21.58;;;13.38;;
64667;SDS011;51077;42.716;23.344;2022-08-21T01:41:12;19.63;;;13.23;;
64667;SDS011;51077;42.716;23.344;2022-08-21T01:43:38;18.38;;;12.52;;
64667;SDS011;51077;42.716;23.344;2022-08-21T01:46:03;21.63;;;10.73;;
64667;SDS011;51077;42.716;23.344;2022-08-21T01:48:29;17.43;;;11.17;;
64667;SDS011;51077;42.716;23.344;2022-08-21T01:50:55;16.90;;;11.23;;
64667;SDS011;51077;42.716;23.344;2022-08-21T01:53:21;16.98;;;10.90;;
64667;SDS011;51077;42.716;23.344;2022-08-21T01:55:46;15.37;;;11.40;;
64667;SDS011;51077;42.716;23.344;2022-08-21T01:58:12;17.07;;;10.90;;
64667;SDS011;51077;42.716;23.344;2022-08-21T02:00:37;16.07;;;11.10;;
64667;SDS011;51077;42.716;23.344;2022-08-21T02:03:03;17.80;;;10.97;;
64667;SDS011;51077;42.716;23.344;2022-08-21T02:05:28;18.23;;;11.30;;
64667;SDS011;51077;42.716;23.344;2022-08-21T02:07:54;17.43;;;11.20;;
64667;SDS011;51077;42.716;23.344;2022-08-21T02:10:25;17.40;;;9.80;;
64667;SDS011;51077;42.716;23.344;2022-08-21T02:12:53;14.48;;;9.48;;
64667;SDS011;51077;42.716;23.344;2022-08-21T02:15:19;14.82;;;10.20;;
64667;SDS011;51077;42.716;23.344;2022-08-21T02:17:46;13.77;;;9.02;;
64667;SDS011;51077;42.716;23.344;2022-08-21T02:20:17;11.93;;;8.05;;
64667;SDS011;51077;42.716;23.344;2022-08-21T02:25:12;12.80;;;7.03;;
64667;SDS011;51077;42.716;23.344;2022-08-21T02:27:42;10.88;;;6.88;;
64667;SDS011;51077;42.716;23.344;2022-08-21T02:30:14;10.13;;;6.38;;
64667;SDS011;51077;42.716;23.344;2022-08-21T02:32:41;9.10;;;6.18;;
64667;SDS011;51077;42.716;23.344;2022-08-21T02:35:07;13.03;;;5.70;;
64667;SDS011;51077;42.716;23.344;2022-08-21T02:37:34;8.70;;;5.75;;
64667;SDS011;51077;42.716;23.344;2022-08-21T02:40:07;9.90;;;5.85;;
64667;SDS011;51077;42.716;23.344;2022-08-21T02:42:36;11.57;;;6.45;;
64667;SDS011;51077;42.716;23.344;2022-08-21T02:45:02;10.77;;;7.27;;
64667;SDS011;51077;42.716;23.344;2022-08-21T02:47:28;13.43;;;7.80;;
64667;SDS011;51077;42.716;23.344;2022-08-21T02:49:53;17.33;;;8.20;;
64667;SDS011;51077;42.716;23.344;2022-08-21T02:52:19;11.43;;;7.70;;
64667;SDS011;51077;42.716;23.344;2022-08-21T02:54:44;11.53;;;7.27;;
64667;SDS011;51077;42.716;23.344;2022-08-21T02:57:09;13.20;;;7.40;;
64667;SDS011;51077;42.716;23.344;2022-08-21T02:59:35;11.00;;;7.33;;
64667;SDS011;51077;42.716;23.344;2022-08-21T03:02:01;11.27;;;8.10;;
64667;SDS011;51077;42.716;23.344;2022-08-21T03:04:27;11.98;;;7.65;;
64667;SDS011;51077;42.716;23.344;2022-08-21T03:06:52;12.90;;;8.50;;
64667;SDS011;51077;42.716;23.344;2022-08-21T03:09:17;13.07;;;9.00;;
64667;SDS011;51077;42.716;23.344;2022-08-21T03:11:43;12.47;;;9.13;;
64667;SDS011;51077;42.716;23.344;2022-08-21T03:14:08;15.77;;;9.67;;
64667;SDS011;51077;42.716;23.344;2022-08-21T03:16:34;15.90;;;9.53;;
64667;SDS011;51077;42.716;23.344;2022-08-21T03:19:00;16.17;;;9.03;;
64667;SDS011;51077;42.716;23.344;2022-08-21T03:21:25;15.37;;;10.27;;
64667;SDS011;51077;42.716;23.344;2022-08-21T03:23:51;15.40;;;10.03;;
64667;SDS011;51077;42.716;23.344;2022-08-21T03:26:18;18.65;;;10.30;;
64667;SDS011;51077;42.716;23.344;2022-08-21T03:28:44;14.73;;;9.20;;
64667;SDS011;51077;42.716;23.344;2022-08-21T03:31:09;13.03;;;9.40;;
64667;SDS011;51077;42.716;23.344;2022-08-21T03:33:35;13.07;;;9.30;;
64667;SDS011;51077;42.716;23.344;2022-08-21T03:36:02;11.93;;;8.37;;
64667;SDS011;51077;42.716;23.344;2022-08-21T03:38:32;13.30;;;8.80;;
64667;SDS011;51077;42.716;23.344;2022-08-21T03:40:59;18.20;;;8.27;;
64667;SDS011;51077;42.716;23.344;2022-08-21T03:43:26;11.73;;;9.20;;
64667;SDS011;51077;42.716;23.344;2022-08-21T03:45:52;14.93;;;9.50;;
64667;SDS011;51077;42.716;23.344;2022-08-21T03:48:18;12.93;;;9.00;;
64667;SDS011;51077;42.716;23.344;2022-08-21T03:50:44;16.20;;;10.10;;
64667;SDS011;51077;42.716;23.344;2022-08-21T03:53:12;13.85;;;9.65;;
64667;SDS011;51077;42.716;23.344;2022-08-21T03:55:38;16.42;;;10.60;;
64667;SDS011;51077;42.716;23.344;2022-08-21T03:58:03;20.73;;;11.70;;
64667;SDS011;51077;42.716;23.344;2022-08-21T04:00:29;17.87;;;12.27;;
64667;SDS011;51077;42.716;23.344;2022-08-21T04:02:55;16.10;;;11.80;;
64667;SDS011;51077;42.716;23.344;2022-08-21T04:05:20;16.17;;;10.97;;
64667;SDS011;51077;42.716;23.344;2022-08-21T04:07:59;17.33;;;11.52;;
64667;SDS011;51077;42.716;23.344;2022-08-21T04:10:31;18.67;;;11.88;;
64667;SDS011;51077;42.716;23.344;2022-08-21T04:12:59;14.43;;;10.35;;
64667;SDS011;51077;42.716;23.344;2022-08-21T04:15:26;14.60;;;10.60;;
64667;SDS011;51077;42.716;23.344;2022-08-21T04:17:52;14.05;;;9.73;;
64667;SDS011;51077;42.716;23.344;2022-08-21T04:20:17;13.57;;;9.53;;
64667;SDS011;51077;42.716;23.344;2022-08-21T04:22:43;17.15;;;10.57;;
64667;SDS011;51077;42.716;23.344;2022-08-21T04:25:10;13.90;;;10.60;;
64667;SDS011;51077;42.716;23.344;2022-08-21T04:27:36;14.13;;;10.15;;
64667;SDS011;51077;42.716;23.344;2022-08-21T04:30:02;15.17;;;9.20;;
64667;SDS011;51077;42.716;23.344;2022-08-21T04:32:29;14.60;;;9.80;;
64667;SDS011;51077;42.716;23.344;2022-08-21T04:34:58;14.57;;;9.70;;
64667;SDS011;51077;42.716;23.344;2022-08-21T04:37:26;15.90;;;8.48;;
64667;SDS011;51077;42.716;23.344;2022-08-21T04:39:51;12.87;;;8.23;;
64667;SDS011;51077;42.716;23.344;2022-08-21T04:42:17;16.97;;;8.80;;
64667;SDS011;51077;42.716;23.344;2022-08-21T04:44:43;11.90;;;7.73;;
64667;SDS011;51077;42.716;23.344;2022-08-21T04:47:08;15.77;;;8.83;;
64667;SDS011;51077;42.716;23.344;2022-08-21T04:49:34;10.93;;;7.77;;
64667;SDS011;51077;42.716;23.344;2022-08-21T04:51:59;15.73;;;8.40;;
64667;SDS011;51077;42.716;23.344;2022-08-21T04:54:26;16.60;;;8.40;;
64667;SDS011;51077;42.716;23.344;2022-08-21T04:56:53;13.45;;;8.90;;
64667;SDS011;51077;42.716;23.344;2022-08-21T04:59:28;14.98;;;9.52;;
64667;SDS011;51077;42.716;23.344;2022-08-21T05:01:57;12.13;;;8.48;;
64667;SDS011;51077;42.716;23.344;2022-08-21T05:04:27;15.00;;;9.68;;
64667;SDS011;51077;42.716;23.344;2022-08-21T05:06:56;10.55;;;9.07;;
64667;SDS011;51077;42.716;23.344;2022-08-21T05:09:23;14.23;;;8.48;;
64667;SDS011;51077;42.716;23.344;2022-08-21T05:11:49;13.02;;;9.20;;
64667;SDS011;51077;42.716;23.344;2022-08-21T05:14:16;15.65;;;9.13;;
64667;SDS011;51077;42.716;23.344;2022-08-21T05:16:41;15.80;;;9.20;;
64667;SDS011;51077;42.716;23.344;2022-08-21T05:19:08;13.57;;;8.55;;
64667;SDS011;51077;42.716;23.344;2022-08-21T05:21:35;16.00;;;10.30;;
64667;SDS011;51077;42.716;23.344;2022-08-21T05:24:02;12.45;;;9.35;;
64667;SDS011;51077;42.716;23.344;2022-08-21T05:26:28;16.60;;;9.68;;
64667;SDS011;51077;42.716;23.344;2022-08-21T05:28:54;15.30;;;8.57;;
64667;SDS011;51077;42.716;23.344;2022-08-21T05:31:20;15.32;;;9.32;;
64667;SDS011;51077;42.716;23.344;2022-08-21T05:33:47;18.13;;;9.70;;
64667;SDS011;51077;42.716;23.344;2022-08-21T05:36:12;17.27;;;9.90;;
64667;SDS011;51077;42.716;23.344;2022-08-21T05:38:38;16.37;;;9.07;;
64667;SDS011;51077;42.716;23.344;2022-08-21T05:41:03;13.43;;;8.80;;
64667;SDS011;51077;42.716;23.344;2022-08-21T05:43:29;14.33;;;9.63;;
64667;SDS011;51077;42.716;23.344;2022-08-21T05:45:55;14.03;;;8.80;;
64667;SDS011;51077;42.716;23.344;2022-08-21T05:48:21;17.67;;;9.50;;
64667;SDS011;51077;42.716;23.344;2022-08-21T05:50:48;14.43;;;8.68;;
64667;SDS011;51077;42.716;23.344;2022-08-21T05:55:42;12.65;;;8.30;;
64667;SDS011;51077;42.716;23.344;2022-08-21T05:58:08;16.00;;;8.35;;
64667;SDS011;51077;42.716;23.344;2022-08-21T06:00:34;11.33;;;8.00;;
64667;SDS011;51077;42.716;23.344;2022-08-21T06:02:59;13.20;;;8.50;;
64667;SDS011;51077;42.716;23.344;2022-08-21T06:05:25;16.20;;;10.47;;
64667;SDS011;51077;42.716;23.344;2022-08-21T06:07:51;11.30;;;7.65;;
64667;SDS011;51077;42.716;23.344;2022-08-21T06:10:17;11.05;;;8.43;;
64667;SDS011;51077;42.716;23.344;2022-08-21T06:12:43;14.53;;;7.90;;
64667;SDS011;51077;42.716;23.344;2022-08-21T06:15:08;17.73;;;8.53;;
64667;SDS011;51077;42.716;23.344;2022-08-21T06:17:34;15.70;;;9.37;;
64667;SDS011;51077;42.716;23.344;2022-08-21T06:19:59;11.47;;;7.80;;
64667;SDS011;51077;42.716;23.344;2022-08-21T06:22:25;12.70;;;8.17;;
64667;SDS011;51077;42.716;23.344;2022-08-21T06:24:50;12.90;;;7.83;;
64667;SDS011;51077;42.716;23.344;2022-08-21T06:27:16;12.27;;;7.77;;
64667;SDS011;51077;42.716;23.344;2022-08-21T06:29:42;11.82;;;8.35;;
64667;SDS011;51077;42.716;23.344;2022-08-21T06:32:10;12.00;;;7.83;;
64667;SDS011;51077;42.716;23.344;2022-08-21T06:34:36;11.05;;;7.70;;
64667;SDS011;51077;42.716;23.344;2022-08-21T06:37:03;12.20;;;6.95;;
64667;SDS011;51077;42.716;23.344;2022-08-21T06:39:29;9.30;;;6.07;;
64667;SDS011;51077;42.716;23.344;2022-08-21T06:41:55;9.20;;;5.57;;
64667;SDS011;51077;42.716;23.344;2022-08-21T06:44:20;10.60;;;5.67;;
64667;SDS011;51077;42.716;23.344;2022-08-21T06:46:46;9.47;;;4.87;;
64667;SDS011;51077;42.716;23.344;2022-08-21T06:49:11;8.13;;;5.50;;
64667;SDS011;51077;42.716;23.344;2022-08-21T06:51:37;8.85;;;5.03;;
64667;SDS011;51077;42.716;23.344;2022-08-21T06:54:03;8.40;;;5.20;;
64667;SDS011;51077;42.716;23.344;2022-08-21T06:56:29;9.50;;;5.33;;
64667;SDS011;51077;42.716;23.344;2022-08-21T06:58:54;8.50;;;5.37;;
64667;SDS011;51077;42.716;23.344;2022-08-21T07:01:23;8.43;;;5.13;;
64667;SDS011;51077;42.716;23.344;2022-08-21T07:03:50;12.32;;;6.78;;
64667;SDS011;51077;42.716;23.344;2022-08-21T07:06:15;11.57;;;5.50;;
64667;SDS011;51077;42.716;23.344;2022-08-21T07:08:40;8.17;;;5.30;;
64667;SDS011;51077;42.716;23.344;2022-08-21T07:11:13;7.13;;;5.17;;
64667;SDS011;51077;42.716;23.344;2022-08-21T07:13:42;10.07;;;6.63;;
64667;SDS011;51077;42.716;23.344;2022-08-21T07:16:08;7.73;;;5.77;;
64667;SDS011;51077;42.716;23.344;2022-08-21T07:18:33;11.50;;;6.70;;
64667;SDS011;51077;42.716;23.344;2022-08-21T07:21:00;8.63;;;5.87;;
64667;SDS011;51077;42.716;23.344;2022-08-21T07:23:28;9.88;;;5.82;;
64667;SDS011;51077;42.716;23.344;2022-08-21T07:25:57;12.38;;;6.78;;
64667;SDS011;51077;42.716;23.344;2022-08-21T07:28:24;9.55;;;6.03;;
64667;SDS011;51077;42.716;23.344;2022-08-21T07:30:50;12.93;;;6.83;;
64667;SDS011;51077;42.716;23.344;2022-08-21T07:33:18;13.40;;;6.88;;
64667;SDS011;51077;42.716;23.344;2022-08-21T07:35:43;8.63;;;6.30;;
64667;SDS011;51077;42.716;23.344;2022-08-21T07:38:08;11.40;;;7.20;;
64667;SDS011;51077;42.716;23.344;2022-08-21T07:40:34;11.03;;;7.77;;
64667;SDS011;51077;42.716;23.344;2022-08-21T07:42:59;10.97;;;7.77;;
64667;SDS011;51077;42.716;23.344;2022-08-21T07:45:25;13.60;;;8.23;;
64667;SDS011;51077;42.716;23.344;2022-08-21T07:47:51;11.37;;;8.07;;
64667;SDS011;51077;42.716;23.344;2022-08-21T07:50:16;10.53;;;8.70;;
64667;SDS011;51077;42.716;23.344;2022-08-21T07:52:43;9.45;;;8.10;;
64667;SDS011;51077;42.716;23.344;2022-08-21T07:55:10;11.00;;;8.45;;
64667;SDS011;51077;42.716;23.344;2022-08-21T07:57:37;12.00;;;9.05;;
64667;SDS011;51077;42.716;23.344;2022-08-21T08:00:04;11.90;;;9.07;;
64667;SDS011;51077;42.716;23.344;2022-08-21T08:02:31;10.75;;;8.48;;
64667;SDS011;51077;42.716;23.344;2022-08-21T08:05:00;17.47;;;8.77;;
64667;SDS011;51077;42.716;23.344;2022-08-21T08:07:28;14.13;;;8.00;;
64667;SDS011;51077;42.716;23.344;2022-08-21T08:09:54;11.60;;;7.63;;
64667;SDS011;51077;42.716;23.344;2022-08-21T08:12:19;12.30;;;7.73;;
64667;SDS011;51077;42.716;23.344;2022-08-21T08:14:45;12.57;;;7.25;;
64667;SDS011;51077;42.716;23.344;2022-08-21T08:17:11;9.40;;;7.00;;
64667;SDS011;51077;42.716;23.344;2022-08-21T08:19:38;9.93;;;6.65;;
64667;SDS011;51077;42.716;23.344;2022-08-21T08:22:16;10.90;;;6.45;;
64667;SDS011;51077;42.716;23.344;2022-08-21T08:24:44;12.45;;;7.13;;
64667;SDS011;51077;42.716;23.344;2022-08-21T08:27:10;9.82;;;6.63;;
64667;SDS011;51077;42.716;23.344;2022-08-21T08:29:35;12.83;;;7.10;;
64667;SDS011;51077;42.716;23.344;2022-08-21T08:32:01;11.40;;;6.17;;
64667;SDS011;51077;42.716;23.344;2022-08-21T08:34:28;7.88;;;5.68;;
64667;SDS011;51077;42.716;23.344;2022-08-21T08:36:53;11.47;;;6.70;;
64667;SDS011;51077;42.716;23.344;2022-08-21T08:39:19;9.17;;;6.93;;
64667;SDS011;51077;42.716;23.344;2022-08-21T08:41:45;12.23;;;6.27;;
64667;SDS011;51077;42.716;23.344;2022-08-21T08:44:16;8.35;;;6.00;;
64667;SDS011;51077;42.716;23.344;2022-08-21T08:46:44;10.63;;;6.70;;
64667;SDS011;51077;42.716;23.344;2022-08-21T08:49:13;11.00;;;6.78;;
64667;SDS011;51077;42.716;23.344;2022-08-21T08:51:46;9.27;;;5.50;;
64667;SDS011;51077;42.716;23.344;2022-08-21T08:54:18;7.90;;;5.43;;
64667;SDS011;51077;42.716;23.344;2022-08-21T08:56:50;10.65;;;5.45;;
64667;SDS011;51077;42.716;23.344;2022-08-21T08:59:22;10.13;;;5.50;;
64667;SDS011;51077;42.716;23.344;2022-08-21T09:01:58;10.05;;;5.60;;
64667;SDS011;51077;42.716;23.344;2022-08-21T09:04:25;10.33;;;5.40;;
64667;SDS011;51077;42.716;23.344;2022-08-21T09:09:46;7.68;;;5.13;;
64667;SDS011;51077;42.716;23.344;2022-08-21T09:20:17;8.65;;;4.38;;
64667;SDS011;51077;42.716;23.344;2022-08-21T09:22:59;10.18;;;5.38;;
64667;SDS011;51077;42.716;23.344;2022-08-21T09:26:08;7.43;;;4.57;;
64667;SDS011;51077;42.716;23.344;2022-08-21T09:28:32;9.57;;;4.93;;
64667;SDS011;51077;42.716;23.344;2022-08-21T09:30:59;8.95;;;4.78;;
64667;SDS011;51077;42.716;23.344;2022-08-21T09:33:28;12.80;;;5.55;;
64667;SDS011;51077;42.716;23.344;2022-08-21T09:35:54;10.27;;;5.40;;
64667;SDS011;51077;42.716;23.344;2022-08-21T09:38:30;9.23;;;5.68;;
64667;SDS011;51077;42.716;23.344;2022-08-21T09:41:03;8.30;;;4.72;;
64667;SDS011;51077;42.716;23.344;2022-08-21T09:43:34;8.75;;;4.82;;
64667;SDS011;51077;42.716;23.344;2022-08-21T09:46:03;8.38;;;5.28;;
64667;SDS011;51077;42.716;23.344;2022-08-21T09:48:53;7.85;;;4.57;;
64667;SDS011;51077;42.716;23.344;2022-08-21T09:51:25;8.10;;;3.85;;
64667;SDS011;51077;42.716;23.344;2022-08-21T09:53:55;8.23;;;4.10;;
64667;SDS011;51077;42.716;23.344;2022-08-21T09:56:35;7.82;;;4.32;;
64667;SDS011;51077;42.716;23.344;2022-08-21T10:01:57;7.97;;;4.47;;
64667;SDS011;51077;42.716;23.344;2022-08-21T10:04:32;8.63;;;4.80;;
64667;SDS011;51077;42.716;23.344;2022-08-21T10:07:11;5.18;;;3.85;;
64667;SDS011;51077;42.716;23.344;2022-08-21T10:09:39;8.32;;;4.32;;
64667;SDS011;51077;42.716;23.344;2022-08-21T10:14:53;8.07;;;4.90;;
64667;SDS011;51077;42.716;23.344;2022-08-21T10:25:55;8.68;;;4.40;;
64667;SDS011;51077;42.716;23.344;2022-08-21T10:31:11;8.48;;;4.30;;
64667;SDS011;51077;42.716;23.344;2022-08-21T10:34:50;7.90;;;4.03;;
64667;SDS011;51077;42.716;23.344;2022-08-21T10:39:34;7.82;;;4.70;;
64667;SDS011;51077;42.716;23.344;2022-08-21T10:47:29;7.70;;;4.20;;
64667;SDS011;51077;42.716;23.344;2022-08-21T10:55:23;7.78;;;3.78;;
64667;SDS011;51077;42.716;23.344;2022-08-21T10:58:01;8.55;;;3.63;;
64667;SDS011;51077;42.716;23.344;2022-08-21T11:00:38;9.40;;;4.13;;
64667;SDS011;51077;42.716;23.344;2022-08-21T11:03:11;8.53;;;3.77;;
64667;SDS011;51077;42.716;23.344;2022-08-21T11:05:54;6.10;;;3.57;;
64667;SDS011;51077;42.716;23.344;2022-08-21T11:08:29;6.05;;;4.18;;
64667;SDS011;51077;42.716;23.344;2022-08-21T11:11:08;9.47;;;4.33;;
64667;SDS011;51077;42.716;23.344;2022-08-21T11:13:44;8.83;;;4.47;;
64667;SDS011;51077;42.716;23.344;2022-08-21T11:18:55;5.40;;;3.80;;
64667;SDS011;51077;42.716;23.344;2022-08-21T11:21:32;6.63;;;4.00;;
64667;SDS011;51077;42.716;23.344;2022-08-21T11:29:31;5.07;;;3.20;;
64667;SDS011;51077;42.716;23.344;2022-08-21T11:45:33;9.40;;;3.83;;
64667;SDS011;51077;42.716;23.344;2022-08-21T11:50:35;7.13;;;3.30;;
64667;SDS011;51077;42.716;23.344;2022-08-21T11:53:15;8.77;;;3.70;;
64667;SDS011;51077;42.716;23.344;2022-08-21T11:55:56;6.37;;;3.80;;
64667;SDS011;51077;42.716;23.344;2022-08-21T11:58:36;6.57;;;3.70;;
64667;SDS011;51077;42.716;23.344;2022-08-21T12:01:08;7.47;;;3.73;;
64667;SDS011;51077;42.716;23.344;2022-08-21T12:03:40;7.33;;;3.60;;
64667;SDS011;51077;42.716;23.344;2022-08-21T12:06:27;10.43;;;4.33;;
64667;SDS011;51077;42.716;23.344;2022-08-21T12:09:01;7.90;;;3.90;;
64667;SDS011;51077;42.716;23.344;2022-08-21T12:11:30;7.22;;;4.25;;
64667;SDS011;51077;42.716;23.344;2022-08-21T12:16:28;9.23;;;4.70;;
64667;SDS011;51077;42.716;23.344;2022-08-21T12:19:11;7.32;;;4.10;;
64667;SDS011;51077;42.716;23.344;2022-08-21T12:21:59;9.98;;;5.15;;
64667;SDS011;51077;42.716;23.344;2022-08-21T12:24:42;8.05;;;4.50;;
64667;SDS011;51077;42.716;23.344;2022-08-21T12:29:47;9.15;;;4.60;;
64667;SDS011;51077;42.716;23.344;2022-08-21T12:43:02;8.05;;;4.43;;
64667;SDS011;51077;42.716;23.344;2022-08-21T12:45:43;8.52;;;4.53;;
64667;SDS011;51077;42.716;23.344;2022-08-21T12:51:09;9.77;;;4.97;;
64667;SDS011;51077;42.716;23.344;2022-08-21T12:56:23;7.50;;;4.55;;
64667;SDS011;51077;42.716;23.344;2022-08-21T12:58:51;7.88;;;4.55;;
64667;SDS011;51077;42.716;23.344;2022-08-21T13:01:21;8.82;;;4.22;;
64667;SDS011;51077;42.716;23.344;2022-08-21T13:03:53;5.72;;;4.20;;
64667;SDS011;51077;42.716;23.344;2022-08-21T13:06:21;11.48;;;4.75;;
64667;SDS011;51077;42.716;23.344;2022-08-21T13:08:49;10.07;;;4.05;;
64667;SDS011;51077;42.716;23.344;2022-08-21T13:11:19;9.20;;;4.20;;
64667;SDS011;51077;42.716;23.344;2022-08-21T13:13:50;8.80;;;4.32;;
64667;SDS011;51077;42.716;23.344;2022-08-21T13:16:25;7.07;;;4.45;;
64667;SDS011;51077;42.716;23.344;2022-08-21T13:18:59;6.55;;;3.90;;
64667;SDS011;51077;42.716;23.344;2022-08-21T13:21:31;15.30;;;5.15;;
64667;SDS011;51077;42.716;23.344;2022-08-21T13:24:15;8.07;;;4.25;;
64667;SDS011;51077;42.716;23.344;2022-08-21T13:26:44;9.45;;;4.15;;
64667;SDS011;51077;42.716;23.344;2022-08-21T13:29:11;8.85;;;4.28;;
64667;SDS011;51077;42.716;23.344;2022-08-21T13:31:40;7.10;;;4.07;;
64667;SDS011;51077;42.716;23.344;2022-08-21T13:34:08;10.30;;;4.50;;
64667;SDS011;51077;42.716;23.344;2022-08-21T13:36:37;10.45;;;5.07;;
64667;SDS011;51077;42.716;23.344;2022-08-21T13:39:12;7.00;;;3.88;;
64667;SDS011;51077;42.716;23.344;2022-08-21T13:41:43;6.95;;;4.30;;
64667;SDS011;51077;42.716;23.344;2022-08-21T13:47:00;7.45;;;3.88;;
64667;SDS011;51077;42.716;23.344;2022-08-21T13:49:38;7.68;;;3.97;;
64667;SDS011;51077;42.716;23.344;2022-08-21T13:54:51;6.00;;;3.75;;
64667;SDS011;51077;42.716;23.344;2022-08-21T13:57:33;7.97;;;3.85;;
64667;SDS011;51077;42.716;23.344;2022-08-21T14:00:12;7.43;;;4.28;;
64667;SDS011;51077;42.716;23.344;2022-08-21T14:02:50;10.38;;;4.22;;
64667;SDS011;51077;42.716;23.344;2022-08-21T14:05:21;9.38;;;4.80;;
64667;SDS011;51077;42.716;23.344;2022-08-21T14:07:52;6.20;;;4.15;;
64667;SDS011;51077;42.716;23.344;2022-08-21T14:10:46;7.22;;;4.00;;
64667;SDS011;51077;42.716;23.344;2022-08-21T14:16:22;9.35;;;3.67;;
64667;SDS011;51077;42.716;23.344;2022-08-21T14:19:07;6.68;;;4.05;;
64667;SDS011;51077;42.716;23.344;2022-08-21T14:21:42;6.10;;;3.70;;
64667;SDS011;51077;42.716;23.344;2022-08-21T14:24:10;8.45;;;4.60;;
64667;SDS011;51077;42.716;23.344;2022-08-21T14:26:52;8.27;;;3.95;;
64667;SDS011;51077;42.716;23.344;2022-08-21T14:29:21;10.07;;;4.78;;
64667;SDS011;51077;42.716;23.344;2022-08-21T14:31:54;12.50;;;4.60;;
64667;SDS011;51077;42.716;23.344;2022-08-21T14:34:26;10.52;;;4.50;;
64667;SDS011;51077;42.716;23.344;2022-08-21T14:36:54;10.30;;;5.10;;
64667;SDS011;51077;42.716;23.344;2022-08-21T14:39:20;8.20;;;5.15;;
64667;SDS011;51077;42.716;23.344;2022-08-21T14:41:46;8.73;;;4.40;;
64667;SDS011;51077;42.716;23.344;2022-08-21T14:44:13;9.65;;;4.03;;
64667;SDS011;51077;42.716;23.344;2022-08-21T14:46:40;6.05;;;4.45;;
64667;SDS011;51077;42.716;23.344;2022-08-21T14:49:06;6.23;;;4.13;;
64667;SDS011;51077;42.716;23.344;2022-08-21T14:51:32;6.60;;;4.20;;
64667;SDS011;51077;42.716;23.344;2022-08-21T14:53:58;8.73;;;4.40;;
64667;SDS011;51077;42.716;23.344;2022-08-21T14:56:23;8.07;;;4.87;;
64667;SDS011;51077;42.716;23.344;2022-08-21T14:58:50;7.93;;;4.63;;
64667;SDS011;51077;42.716;23.344;2022-08-21T15:01:18;9.02;;;4.82;;
64667;SDS011;51077;42.716;23.344;2022-08-21T15:03:45;8.00;;;4.18;;
64667;SDS011;51077;42.716;23.344;2022-08-21T15:06:13;10.98;;;5.05;;
64667;SDS011;51077;42.716;23.344;2022-08-21T15:08:39;10.45;;;5.18;;
64667;SDS011;51077;42.716;23.344;2022-08-21T15:11:05;10.73;;;5.30;;
64667;SDS011;51077;42.716;23.344;2022-08-21T15:13:31;9.10;;;4.72;;
64667;SDS011;51077;42.716;23.344;2022-08-21T15:15:58;11.35;;;4.35;;
64667;SDS011;51077;42.716;23.344;2022-08-21T15:18:24;8.73;;;5.43;;
64667;SDS011;51077;42.716;23.344;2022-08-21T15:20:51;7.38;;;4.43;;
64667;SDS011;51077;42.716;23.344;2022-08-21T15:23:17;8.73;;;5.30;;
64667;SDS011;51077;42.716;23.344;2022-08-21T15:25:43;11.97;;;4.70;;
64667;SDS011;51077;42.716;23.344;2022-08-21T15:28:10;9.48;;;4.82;;
64667;SDS011;51077;42.716;23.344;2022-08-21T15:30:36;7.78;;;5.05;;
64667;SDS011;51077;42.716;23.344;2022-08-21T15:33:04;7.63;;;4.35;;
64667;SDS011;51077;42.716;23.344;2022-08-21T15:35:30;8.18;;;4.30;;
64667;SDS011;51077;42.716;23.344;2022-08-21T15:37:55;7.30;;;4.57;;
64667;SDS011;51077;42.716;23.344;2022-08-21T15:40:22;9.85;;;5.18;;
64667;SDS011;51077;42.716;23.344;2022-08-21T15:42:48;8.70;;;4.77;;
64667;SDS011;51077;42.716;23.344;2022-08-21T15:45:13;7.90;;;4.77;;
64667;SDS011;51077;42.716;23.344;2022-08-21T15:47:42;12.53;;;4.83;;
64667;SDS011;51077;42.716;23.344;2022-08-21T15:50:10;10.38;;;5.05;;
64667;SDS011;51077;42.716;23.344;2022-08-21T15:52:36;10.77;;;4.95;;
64667;SDS011;51077;42.716;23.344;2022-08-21T15:55:02;8.70;;;5.50;;
64667;SDS011;51077;42.716;23.344;2022-08-21T15:57:29;7.38;;;4.35;;
64667;SDS011;51077;42.716;23.344;2022-08-21T15:59:59;8.03;;;4.50;;
64667;SDS011;51077;42.716;23.344;2022-08-21T16:02:37;9.55;;;5.00;;
64667;SDS011;51077;42.716;23.344;2022-08-21T16:05:04;9.60;;;5.75;;
64667;SDS011;51077;42.716;23.344;2022-08-21T16:07:30;8.07;;;4.47;;
64667;SDS011;51077;42.716;23.344;2022-08-21T16:09:56;7.33;;;4.70;;
64667;SDS011;51077;42.716;23.344;2022-08-21T16:12:28;11.23;;;5.23;;